Time;durP1;ratioP1;P1;durP2;ratioP2;P2;SDS_P1;SDS_P2;PMS_P1;PMS_P2;Temp;Humidity;BMP_temperature;BMP_pressure;BME280_temperature;BME280_humidity;BME280_pressure;Samples;Min_cycle;Max_cycle;Signal;HPM_P1;HPM_P2
2021/01/17 00:00:15;;;;;;;8.45;6.28;;;7.50;79.30;;;;;;5084540;28;20060;-45
2021/01/17 00:02:44;;;;;;;8.85;5.85;;;7.60;79.40;;;;;;5085320;28;20392;-46
2021/01/17 00:05:11;;;;;;;7.85;6.20;;;7.60;79.30;;;;;;5085671;28;20048;-48
2021/01/17 00:07:37;;;;;;;7.85;5.70;;;7.50;79.30;;;;;;5085312;28;20098;-46
2021/01/17 00:10:09;;;;;;;8.48;5.70;;;7.50;79.30;;;;;;5084586;28;20472;-48
2021/01/17 00:12:36;;;;;;;7.47;5.75;;;7.60;79.40;;;;;;5086456;28;20044;-45
2021/01/17 00:15:06;;;;;;;8.63;6.03;;;7.60;79.40;;;;;;5084194;28;20049;-48
2021/01/17 00:17:32;;;;;;;9.68;6.03;;;7.60;79.40;;;;;;5085816;28;20392;-47
2021/01/17 00:19:57;;;;;;;9.43;6.22;;;7.60;79.40;;;;;;5084561;28;20045;-44
2021/01/17 00:22:23;;;;;;;10.32;7.40;;;7.50;79.30;;;;;;5084709;28;20056;-45
2021/01/17 00:24:49;;;;;;;8.95;6.20;;;7.60;79.40;;;;;;5085970;28;20044;-47
2021/01/17 00:27:15;;;;;;;7.65;6.03;;;7.60;79.40;;;;;;5084412;28;20090;-49
2021/01/17 00:29:42;;;;;;;9.25;6.30;;;7.60;79.40;;;;;;5084818;28;20060;-45
2021/01/17 00:32:11;;;;;;;9.00;6.05;;;7.50;79.30;;;;;;5085586;28;20044;-45
2021/01/17 00:34:38;;;;;;;8.77;5.75;;;7.60;79.40;;;;;;5084138;28;20106;-44
2021/01/17 00:37:04;;;;;;;9.00;5.88;;;7.60;79.40;;;;;;5084162;28;20040;-46
2021/01/17 00:39:30;;;;;;;9.63;6.57;;;7.50;79.30;;;;;;5085721;28;20096;-45
2021/01/17 00:41:55;;;;;;;9.20;6.45;;;7.60;79.40;;;;;;5084165;28;20048;-44
2021/01/17 00:44:21;;;;;;;9.02;6.13;;;7.50;79.30;;;;;;5084242;28;20105;-44
2021/01/17 00:46:47;;;;;;;9.75;6.40;;;7.50;79.30;;;;;;5085084;28;20048;-45
2021/01/17 00:49:12;;;;;;;8.23;5.78;;;7.50;79.30;;;;;;5084214;28;20059;-45
2021/01/17 00:51:41;;;;;;;7.95;5.85;;;7.50;79.30;;;;;;5084682;28;20090;-45
2021/01/17 00:54:08;;;;;;;8.68;6.32;;;7.50;79.30;;;;;;5083738;28;20057;-48
2021/01/17 00:56:34;;;;;;;8.98;6.65;;;7.50;79.40;;;;;;5085233;28;20068;-46
2021/01/17 00:59:00;;;;;;;8.57;5.95;;;7.50;79.30;;;;;;5084617;28;20045;-45
2021/01/17 01:01:26;;;;;;;9.40;6.47;;;7.50;79.30;;;;;;5083265;28;20064;-49
2021/01/17 01:03:52;;;;;;;9.57;6.53;;;7.50;79.30;;;;;;5084956;28;20048;-47
2021/01/17 01:06:19;;;;;;;8.55;5.82;;;7.60;79.40;;;;;;5084063;28;20499;-46
2021/01/17 01:08:46;;;;;;;7.78;5.90;;;7.50;79.40;;;;;;5065782;28;20047;-44
2021/01/17 01:11:19;;;;;;;8.90;6.35;;;7.50;79.30;;;;;;5085111;28;20148;-45
2021/01/17 01:13:45;;;;;;;10.82;6.82;;;7.50;79.30;;;;;;5084878;28;20163;-47
2021/01/17 01:16:17;;;;;;;11.07;7.05;;;7.50;79.30;;;;;;5082722;28;20127;-47
2021/01/17 01:18:43;;;;;;;8.13;6.47;;;7.60;79.40;;;;;;5083392;28;20047;-44
2021/01/17 01:21:09;;;;;;;9.48;6.85;;;7.50;79.30;;;;;;5084935;28;20048;-45
2021/01/17 01:23:36;;;;;;;8.35;6.20;;;7.50;79.30;;;;;;5083464;28;20078;-45
2021/01/17 01:26:02;;;;;;;10.07;6.30;;;7.50;79.30;;;;;;5083064;28;20547;-44
2021/01/17 01:28:28;;;;;;;9.98;7.07;;;7.50;79.30;;;;;;5084790;28;20412;-45
2021/01/17 01:30:56;;;;;;;8.73;6.10;;;7.50;79.30;;;;;;5082971;28;20036;-44
2021/01/17 01:33:22;;;;;;;9.25;7.13;;;7.50;79.30;;;;;;5083188;28;20076;-44
2021/01/17 01:35:49;;;;;;;11.38;7.22;;;7.50;79.30;;;;;;5084718;28;20055;-43
2021/01/17 01:38:16;;;;;;;9.07;6.63;;;7.50;79.40;;;;;;5083214;28;20049;-44
2021/01/17 01:40:52;;;;;;;10.10;7.03;;;7.50;79.40;;;;;;5083450;28;20058;-43
2021/01/17 01:43:22;;;;;;;10.23;6.93;;;7.50;79.30;;;;;;5084587;28;20048;-43
2021/01/17 01:45:48;;;;;;;9.90;6.80;;;7.50;79.30;;;;;;5084293;28;20048;-44
2021/01/17 01:48:15;;;;;;;11.55;7.50;;;7.50;79.40;;;;;;5083255;28;20584;-44
2021/01/17 01:50:42;;;;;;;10.00;7.00;;;7.50;79.40;;;;;;5083309;28;20079;-44
2021/01/17 01:53:08;;;;;;;9.07;6.28;;;7.50;79.30;;;;;;5084587;28;20036;-43
2021/01/17 01:55:34;;;;;;;8.93;6.43;;;7.50;79.30;;;;;;5082677;28;20043;-44
2021/01/17 01:58:04;;;;;;;9.63;6.72;;;7.50;79.30;;;;;;5083258;28;20047;-44
2021/01/17 02:00:30;;;;;;;9.95;7.07;;;7.50;79.40;;;;;;5084076;28;20070;-44
2021/01/17 02:02:55;;;;;;;9.68;6.65;;;7.50;79.30;;;;;;5083572;28;20115;-43
2021/01/17 02:05:21;;;;;;;10.30;6.63;;;7.50;79.30;;;;;;5082999;28;20469;-44
2021/01/17 02:08:05;;;;;;;9.85;6.88;;;7.50;79.40;;;;;;5082287;28;20442;-43
2021/01/17 02:10:31;;;;;;;11.57;7.07;;;7.50;79.30;;;;;;5084256;28;20462;-43
2021/01/17 02:13:06;;;;;;;9.70;7.35;;;7.50;79.30;;;;;;5083471;28;20044;-45
2021/01/17 02:15:33;;;;;;;9.33;6.90;;;7.50;79.40;;;;;;5083839;28;20381;-44
2021/01/17 02:18:03;;;;;;;9.90;6.95;;;7.50;79.30;;;;;;5082706;28;20045;-45
2021/01/17 02:20:30;;;;;;;8.90;6.20;;;7.50;79.40;;;;;;5081899;28;20055;-46
2021/01/17 02:23:02;;;;;;;10.48;6.70;;;7.50;79.40;;;;;;5083792;28;20408;-48
2021/01/17 02:25:35;;;;;;;9.35;6.55;;;7.50;79.30;;;;;;5083363;28;20157;-46
2021/01/17 02:28:04;;;;;;;10.88;7.57;;;7.50;79.40;;;;;;5083914;28;20048;-47
2021/01/17 02:30:34;;;;;;;9.35;6.68;;;7.50;79.40;;;;;;5083996;28;20150;-47
2021/01/17 02:33:08;;;;;;;9.40;7.25;;;7.50;79.40;;;;;;5082435;28;20087;-48
2021/01/17 02:35:35;;;;;;;10.25;7.32;;;7.50;79.40;;;;;;5081231;28;20045;-47
2021/01/17 02:38:19;;;;;;;10.98;7.50;;;7.50;79.40;;;;;;5082247;28;20051;-46
2021/01/17 02:41:22;;;;;;;10.20;7.63;;;7.50;79.30;;;;;;5083702;28;20048;-45
2021/01/17 02:43:49;;;;;;;10.93;6.93;;;7.50;79.40;;;;;;5083965;28;20047;-48
2021/01/17 02:46:15;;;;;;;9.50;7.15;;;7.50;79.40;;;;;;5083396;28;20051;-45
2021/01/17 02:48:41;;;;;;;10.73;7.72;;;7.50;79.40;;;;;;5082309;28;20040;-45
2021/01/17 02:51:07;;;;;;;10.60;6.95;;;7.50;79.40;;;;;;5064451;28;20067;-49
2021/01/17 02:53:44;;;;;;;9.15;6.70;;;7.50;79.40;;;;;;5081429;28;20044;-48
2021/01/17 02:56:17;;;;;;;10.55;7.30;;;7.50;79.40;;;;;;5063244;28;20119;-49
2021/01/17 02:58:49;;;;;;;10.23;7.60;;;7.50;79.40;;;;;;5083412;28;20043;-50
2021/01/17 03:01:21;;;;;;;10.32;6.75;;;7.50;79.40;;;;;;5083901;28;20050;-48
2021/01/17 03:03:49;;;;;;;10.88;7.70;;;7.50;79.40;;;;;;5082328;28;20074;-45
2021/01/17 03:06:16;;;;;;;11.40;7.05;;;7.50;79.40;;;;;;5081699;28;20045;-48
2021/01/17 03:08:42;;;;;;;10.18;7.40;;;7.50;79.40;;;;;;5081729;28;20056;-46
2021/01/17 03:11:07;;;;;;;11.15;7.60;;;7.50;79.40;;;;;;5083499;28;20040;-48
2021/01/17 03:13:36;;;;;;;10.32;7.32;;;7.50;79.40;;;;;;5081829;28;20117;-47
2021/01/17 03:16:03;;;;;;;10.38;7.57;;;7.50;79.40;;;;;;5081770;28;20127;-46
2021/01/17 03:18:29;;;;;;;10.57;7.38;;;7.50;79.40;;;;;;5082983;28;20106;-48
2021/01/17 03:20:55;;;;;;;12.50;7.75;;;7.50;80.00;;;;;;5081236;28;20473;-45
2021/01/17 03:23:20;;;;;;;11.20;7.90;;;7.50;79.40;;;;;;5081946;28;20495;-47
2021/01/17 03:25:46;;;;;;;10.25;7.30;;;7.50;79.40;;;;;;5083131;28;20122;-45
2021/01/17 03:28:12;;;;;;;11.13;7.50;;;7.50;79.40;;;;;;5083830;28;20051;-48
2021/01/17 03:30:37;;;;;;;12.07;8.02;;;7.50;79.40;;;;;;5082130;28;20052;-45
2021/01/17 03:33:03;;;;;;;12.20;8.02;;;7.50;79.40;;;;;;5082830;28;20040;-49
2021/01/17 03:35:29;;;;;;;10.55;7.32;;;7.50;79.40;;;;;;5080600;28;20515;-49
2021/01/17 03:37:55;;;;;;;11.35;8.13;;;7.50;79.40;;;;;;5082707;28;20044;-47
2021/01/17 03:40:22;;;;;;;12.43;8.50;;;7.50;79.40;;;;;;5082403;28;20094;-47
2021/01/17 03:42:47;;;;;;;12.15;8.10;;;7.50;79.40;;;;;;5081031;28;20040;-50
2021/01/17 03:45:13;;;;;;;11.77;8.15;;;7.50;79.40;;;;;;5082718;28;20472;-45
2021/01/17 03:47:39;;;;;;;11.32;7.90;;;7.50;79.40;;;;;;5082756;28;20135;-47
2021/01/17 03:50:06;;;;;;;10.55;7.47;;;7.50;79.40;;;;;;5084270;28;20135;-47
2021/01/17 03:52:31;;;;;;;12.65;8.02;;;7.50;79.40;;;;;;5086649;28;20119;-49
2021/01/17 03:54:57;;;;;;;11.77;8.73;;;7.50;79.40;;;;;;5085492;28;20128;-46
2021/01/17 03:57:22;;;;;;;11.55;8.18;;;7.50;79.40;;;;;;5085051;28;20044;-45
2021/01/17 03:59:48;;;;;;;10.60;7.85;;;7.50;79.40;;;;;;5068133;28;20052;-46
2021/01/17 04:02:14;;;;;;;10.85;7.95;;;7.50;79.40;;;;;;5084980;28;20044;-46
2021/01/17 04:04:39;;;;;;;12.10;7.68;;;7.50;79.40;;;;;;5085091;28;20050;-49
2021/01/17 04:07:05;;;;;;;11.85;7.97;;;7.50;79.40;;;;;;5086157;28;20044;-47
2021/01/17 04:09:31;;;;;;;12.05;8.50;;;7.50;79.40;;;;;;5065878;28;20048;-46
2021/01/17 04:11:56;;;;;;;11.63;8.23;;;7.50;79.40;;;;;;5085811;28;20043;-46
2021/01/17 04:14:22;;;;;;;11.68;7.75;;;7.50;79.40;;;;;;5085960;28;20048;-47
2021/01/17 04:16:49;;;;;;;13.15;9.07;;;7.50;79.40;;;;;;5084316;28;20115;-45
2021/01/17 04:19:15;;;;;;;11.90;8.48;;;7.50;79.40;;;;;;5085497;28;20131;-44
2021/01/17 04:21:41;;;;;;;10.30;7.90;;;7.50;79.40;;;;;;5085259;28;20135;-44
2021/01/17 04:24:07;;;;;;;12.23;8.18;;;7.50;79.50;;;;;;5083954;28;20053;-45
2021/01/17 04:26:32;;;;;;;11.20;7.60;;;7.50;79.40;;;;;;5085791;28;20472;-44
2021/01/17 04:28:58;;;;;;;11.77;8.30;;;7.50;79.40;;;;;;5084923;28;20048;-45
2021/01/17 04:31:24;;;;;;;11.90;8.38;;;7.50;79.40;;;;;;5084471;28;20048;-42
2021/01/17 04:33:49;;;;;;;12.50;8.05;;;7.50;79.40;;;;;;5085646;28;20507;-44
2021/01/17 04:36:15;;;;;;;11.40;7.72;;;7.50;79.40;;;;;;5084400;28;20415;-44
2021/01/17 04:38:41;;;;;;;13.88;9.07;;;7.50;79.40;;;;;;5084106;28;20503;-43
2021/01/17 04:41:12;;;;;;;12.55;8.70;;;7.50;79.40;;;;;;5085982;28;20076;-44
2021/01/17 04:43:56;;;;;;;13.02;8.23;;;7.40;79.40;;;;;;5084587;28;20045;-45
2021/01/17 04:46:22;;;;;;;12.07;8.35;;;7.50;79.40;;;;;;5085616;28;20048;-45
2021/01/17 04:48:56;;;;;;;12.95;8.07;;;7.50;79.40;;;;;;5084886;28;20066;-44
2021/01/17 04:51:28;;;;;;;12.15;8.93;;;7.40;79.30;;;;;;5083982;28;20044;-43
2021/01/17 04:53:55;;;;;;;12.23;8.40;;;7.50;79.40;;;;;;5085618;28;20044;-44
2021/01/17 04:56:32;;;;;;;12.85;8.15;;;7.40;79.40;;;;;;5084923;28;20461;-44
2021/01/17 04:59:11;;;;;;;11.95;8.73;;;7.50;79.60;;;;;;5085703;28;20054;-45
2021/01/17 05:01:46;;;;;;;10.95;8.05;;;7.50;79.40;;;;;;5084623;28;20074;-44
2021/01/17 05:04:51;;;;;;;13.10;9.05;;;7.50;79.40;;;;;;5085347;28;20109;-43
2021/01/17 05:07:23;;;;;;;11.23;8.77;;;7.50;79.40;;;;;;5002584;28;20065;-46
2021/01/17 05:09:57;;;;;;;12.52;8.57;;;7.50;79.40;;;;;;5003082;28;20049;-44
2021/01/17 05:12:33;;;;;;;12.45;8.90;;;7.40;79.40;;;;;;5002871;28;20043;-46
2021/01/17 05:14:59;;;;;;;14.27;8.90;;;7.50;79.40;;;;;;5002221;28;20129;-45
2021/01/17 05:17:25;;;;;;;13.65;8.77;;;7.40;79.30;;;;;;5001396;28;20522;-44
2021/01/17 05:19:51;;;;;;;13.20;8.40;;;7.50;79.40;;;;;;5003185;28;20042;-45
2021/01/17 05:22:19;;;;;;;13.90;8.40;;;7.50;79.40;;;;;;5001786;28;20148;-45
2021/01/17 05:24:51;;;;;;;11.30;7.57;;;7.50;79.40;;;;;;5000812;28;20042;-46
2021/01/17 05:27:16;;;;;;;13.52;8.25;;;7.40;79.40;;;;;;5001709;28;20061;-48
2021/01/17 05:29:42;;;;;;;13.77;8.68;;;7.50;79.40;;;;;;5001503;28;20042;-48
2021/01/17 05:32:08;;;;;;;11.65;8.32;;;7.50;79.50;;;;;;5002966;28;20154;-48
2021/01/17 05:34:34;;;;;;;12.02;7.72;;;7.50;79.40;;;;;;5001134;28;20042;-48
2021/01/17 05:37:09;;;;;;;12.48;8.27;;;7.50;79.40;;;;;;5001648;28;20049;-47
2021/01/17 05:39:53;;;;;;;;;;;7.50;79.40;;;;;;5001356;28;20472;-46
2021/01/17 05:42:25;;;;;;;13.70;8.45;;;7.40;79.40;;;;;;5000146;28;19925;-45
2021/01/17 05:44:53;;;;;;;12.02;8.88;;;7.40;79.40;;;;;;5059764;28;20048;-46
2021/01/17 05:47:21;;;;;;;13.43;8.73;;;7.40;79.40;;;;;;5083136;28;20087;-44
2021/01/17 05:50:12;;;;;;;13.10;8.23;;;7.40;79.40;;;;;;5084226;28;20051;-46
2021/01/17 05:52:38;;;;;;;13.15;8.98;;;7.40;79.40;;;;;;5084472;28;20062;-45
2021/01/17 05:55:06;;;;;;;13.00;8.30;;;7.50;79.40;;;;;;5084134;28;20430;-46
2021/01/17 05:57:33;;;;;;;13.40;8.45;;;7.50;79.40;;;;;;5082018;28;20102;-45
2021/01/17 06:00:00;;;;;;;13.18;8.80;;;7.40;79.40;;;;;;5083115;28;20145;-46
2021/01/17 06:02:29;;;;;;;12.82;8.15;;;7.40;79.40;;;;;;5084138;28;20044;-45
2021/01/17 06:04:59;;;;;;;14.25;8.57;;;7.40;79.40;;;;;;5082503;28;20408;-45
2021/01/17 06:07:30;;;;;;;11.20;8.00;;;7.50;79.40;;;;;;5082536;28;20452;-46
2021/01/17 06:10:04;;;;;;;13.15;9.07;;;7.50;79.40;;;;;;5083170;28;20044;-45
2021/01/17 06:12:37;;;;;;;12.13;8.63;;;7.40;79.40;;;;;;5084147;28;20044;-46
2021/01/17 06:15:05;;;;;;;13.23;9.18;;;7.40;79.40;;;;;;5083720;28;20135;-45
2021/01/17 06:17:32;;;;;;;13.05;9.32;;;7.50;79.50;;;;;;5081893;28;20040;-45
2021/01/17 06:20:00;;;;;;;12.48;9.00;;;7.50;79.40;;;;;;5083299;28;20044;-44
2021/01/17 06:22:28;;;;;;;14.80;8.95;;;7.40;79.40;;;;;;5083647;28;20097;-44
2021/01/17 06:24:59;;;;;;;12.82;8.48;;;7.40;79.40;;;;;;5083360;28;20076;-44
2021/01/17 06:27:26;;;;;;;12.13;8.43;;;7.40;79.40;;;;;;5083283;28;20135;-44
2021/01/17 06:29:52;;;;;;;14.43;9.48;;;7.40;79.40;;;;;;5083963;28;20040;-44
2021/01/17 06:32:25;;;;;;;13.23;8.93;;;7.40;79.40;;;;;;5082631;28;20119;-45
2021/01/17 06:34:53;;;;;;;12.18;8.63;;;7.50;79.50;;;;;;5081558;28;20036;-45
2021/01/17 06:37:21;;;;;;;13.90;9.13;;;7.40;79.40;;;;;;5082629;28;20048;-45
2021/01/17 06:39:54;;;;;;;13.32;8.77;;;7.40;79.40;;;;;;5083194;28;20115;-50
2021/01/17 06:42:22;;;;;;;12.43;8.43;;;7.40;79.40;;;;;;5083583;28;20055;-45
2021/01/17 06:44:50;;;;;;;11.73;8.32;;;7.40;79.40;;;;;;5083280;28;20073;-44
2021/01/17 06:47:24;;;;;;;12.68;8.20;;;7.40;79.40;;;;;;5081942;28;20052;-47
2021/01/17 06:49:54;;;;;;;12.70;8.80;;;7.40;79.30;;;;;;5081365;28;20043;-49
2021/01/17 06:52:21;;;;;;;13.27;9.23;;;7.40;79.40;;;;;;5082285;28;20044;-47
2021/01/17 06:54:51;;;;;;;13.30;9.02;;;7.40;79.40;;;;;;5083299;28;20045;-49
2021/01/17 06:57:18;;;;;;;12.15;8.02;;;7.40;79.40;;;;;;5083356;28;20055;-48
2021/01/17 06:59:52;;;;;;;13.48;8.60;;;7.40;79.40;;;;;;5082889;28;20040;-49
2021/01/17 07:02:38;;;;;;;13.60;9.20;;;7.40;79.40;;;;;;5083342;28;20098;-50
2021/01/17 07:05:19;;;;;;;13.30;9.32;;;7.40;79.40;;;;;;5082892;28;20367;-49
2021/01/17 07:08:16;;;;;;;13.40;8.48;;;7.40;79.40;;;;;;5083295;28;20122;-46
2021/01/17 07:10:43;;;;;;;11.05;7.93;;;7.40;79.40;;;;;;5083235;28;20037;-47
2021/01/17 07:13:10;;;;;;;13.45;9.25;;;7.40;79.40;;;;;;5083123;28;20052;-49
2021/01/17 07:15:37;;;;;;;14.38;9.38;;;7.40;79.40;;;;;;5081791;28;20109;-46
2021/01/17 07:18:05;;;;;;;12.25;8.73;;;7.40;79.40;;;;;;5084149;28;20072;-47
2021/01/17 07:20:36;;;;;;;14.32;9.82;;;7.40;79.40;;;;;;5092634;28;20093;-48
2021/01/17 07:23:04;;;;;;;13.90;9.10;;;7.40;79.40;;;;;;5083690;28;20492;-44
2021/01/17 07:25:31;;;;;;;13.15;8.90;;;7.40;79.40;;;;;;5084713;28;20075;-46
2021/01/17 07:28:11;;;;;;;11.63;8.07;;;7.40;79.40;;;;;;5068042;28;20039;-46
2021/01/17 07:30:55;;;;;;;11.75;8.52;;;7.40;79.40;;;;;;5086950;28;20047;-43
2021/01/17 07:33:31;;;;;;;12.60;9.15;;;7.40;79.40;;;;;;5091190;28;20488;-43
2021/01/17 07:36:03;;;;;;;13.20;8.02;;;7.40;79.40;;;;;;5096099;28;20044;-43
2021/01/17 07:38:35;;;;;;;12.68;8.82;;;7.40;79.40;;;;;;5096551;28;20051;-43
2021/01/17 07:41:10;;;;;;;12.73;9.57;;;7.40;79.40;;;;;;5096437;28;20048;-43
2021/01/17 07:43:39;;;;;;;13.77;9.48;;;7.40;79.40;;;;;;5096198;28;20063;-43
2021/01/17 07:46:07;;;;;;;13.57;9.15;;;7.40;79.40;;;;;;5096269;28;20224;-45
2021/01/17 07:48:33;;;;;;;11.85;8.32;;;7.40;79.40;;;;;;5095918;28;20127;-43
2021/01/17 07:51:01;;;;;;;11.82;8.82;;;7.40;79.40;;;;;;5096178;28;20147;-43
2021/01/17 07:53:36;;;;;;;13.00;8.60;;;7.40;79.40;;;;;;5096087;28;20051;-43
2021/01/17 07:56:28;;;;;;;13.68;9.10;;;7.40;79.40;;;;;;5096124;28;20040;-43
2021/01/17 07:59:02;;;;;;;14.10;9.38;;;7.40;79.30;;;;;;5096079;28;20044;-43
2021/01/17 08:01:31;;;;;;;12.30;8.80;;;7.40;79.40;;;;;;5096076;28;20055;-45
2021/01/17 08:04:05;;;;;;;11.52;8.90;;;7.40;79.40;;;;;;5095875;28;20098;-43
2021/01/17 08:06:34;;;;;;;12.53;8.10;;;7.40;79.40;;;;;;5095750;28;20047;-46
2021/01/17 08:09:06;;;;;;;15.18;9.50;;;7.40;79.40;;;;;;5085545;28;20044;-46
2021/01/17 08:11:45;;;;;;;13.52;9.02;;;7.40;79.40;;;;;;5085991;28;20488;-46
2021/01/17 08:14:17;;;;;;;13.27;9.40;;;7.40;79.40;;;;;;5092004;28;20051;-44
2021/01/17 08:17:20;;;;;;;14.18;8.90;;;7.40;79.30;;;;;;5085445;28;20052;-47
2021/01/17 08:19:54;;;;;;;14.55;9.32;;;7.40;79.30;;;;;;5086024;28;20456;-41
2021/01/17 08:22:20;;;;;;;13.02;9.05;;;7.40;79.40;;;;;;5086145;28;20047;-42
2021/01/17 08:24:47;;;;;;;13.00;8.95;;;7.40;79.40;;;;;;5075162;28;20117;-42
2021/01/17 08:27:35;;;;;;;13.23;8.52;;;7.40;79.40;;;;;;5075229;28;20044;-40
2021/01/17 08:30:07;;;;;;;14.50;9.45;;;7.40;79.40;;;;;;5062108;28;20118;-40
2021/01/17 08:32:45;;;;;;;12.85;9.07;;;7.40;79.40;;;;;;5075046;28;20047;-41
2021/01/17 08:35:23;;;;;;;13.45;8.52;;;7.40;79.40;;;;;;5073890;28;20090;-42
2021/01/17 08:38:15;;;;;;;12.73;8.35;;;7.40;79.40;;;;;;5074958;28;20041;-41
2021/01/17 08:40:43;;;;;;;13.75;9.10;;;7.40;79.40;;;;;;5075107;28;20052;-42
2021/01/17 08:43:18;;;;;;;15.35;8.75;;;7.40;79.40;;;;;;5074961;28;20476;-41
2021/01/17 08:45:46;;;;;;;14.40;9.38;;;7.40;79.40;;;;;;5074778;28;20056;-39
2021/01/17 08:48:17;;;;;;;14.55;9.13;;;7.40;79.40;;;;;;5074408;28;20492;-40
2021/01/17 08:50:44;;;;;;;13.55;9.27;;;7.40;79.30;;;;;;5074391;28;20504;-41
2021/01/17 08:53:14;;;;;;;12.35;8.93;;;7.40;79.40;;;;;;5074256;28;20071;-42
2021/01/17 08:55:43;;;;;;;14.75;9.10;;;7.40;79.30;;;;;;5074342;28;20048;-39
2021/01/17 08:58:10;;;;;;;14.27;9.15;;;7.40;79.40;;;;;;5074175;28;20136;-39
2021/01/17 09:00:57;;;;;;;13.27;8.98;;;7.40;79.40;;;;;;5073673;28;20062;-40
2021/01/17 09:03:26;;;;;;;12.43;8.02;;;7.40;79.40;;;;;;5073774;28;20079;-40
2021/01/17 09:06:01;;;;;;;15.25;9.30;;;7.40;79.40;;;;;;5073941;28;20137;-41
2021/01/17 09:08:31;;;;;;;14.18;9.63;;;7.40;79.40;;;;;;5073872;28;20098;-40
2021/01/17 09:10:57;;;;;;;14.60;9.10;;;7.40;79.40;;;;;;5073631;28;20113;-39
2021/01/17 09:13:28;;;;;;;12.85;8.63;;;7.30;79.30;;;;;;5073379;28;20076;-40
2021/01/17 09:16:03;;;;;;;12.25;8.45;;;7.40;79.40;;;;;;5073727;28;20048;-41
2021/01/17 09:18:33;;;;;;;11.73;8.23;;;7.40;79.40;;;;;;5074452;28;20052;-40
2021/01/17 09:20:59;;;;;;;11.70;8.07;;;7.40;79.40;;;;;;5074374;28;20454;-40
2021/01/17 09:23:25;;;;;;;13.95;9.13;;;7.40;79.40;;;;;;5074211;28;20076;-40
2021/01/17 09:25:56;;;;;;;12.73;8.98;;;7.30;79.30;;;;;;5076625;28;20048;-42
2021/01/17 09:28:21;;;;;;;12.88;8.65;;;7.40;79.40;;;;;;5074224;28;20055;-39
2021/01/17 09:30:49;;;;;;;14.13;9.13;;;7.40;79.40;;;;;;5077606;28;20548;-36
2021/01/17 09:33:15;;;;;;;13.63;9.10;;;7.40;79.40;;;;;;5089473;28;20043;-37
2021/01/17 09:35:42;;;;;;;13.30;8.77;;;7.40;79.40;;;;;;5088223;28;20484;-38
2021/01/17 09:38:13;;;;;;;13.40;8.43;;;7.40;79.30;;;;;;5060449;28;20133;-37
2021/01/17 09:40:44;;;;;;;12.75;9.52;;;7.40;79.30;;;;;;5079769;28;20126;-37
2021/01/17 09:43:10;;;;;;;14.23;9.65;;;7.40;79.40;;;;;;5078348;28;20044;-37
2021/01/17 09:45:36;;;;;;;13.75;8.77;;;7.40;79.40;;;;;;5077370;28;20068;-37
2021/01/17 09:48:03;;;;;;;13.88;8.45;;;7.40;79.30;;;;;;5078366;28;20052;-38
2021/01/17 09:50:33;;;;;;;13.23;9.15;;;7.40;79.30;;;;;;5078535;28;20058;-38
2021/01/17 09:53:07;;;;;;;12.55;8.48;;;7.40;79.30;;;;;;5077146;28;20086;-36
2021/01/17 09:55:34;;;;;;;13.73;9.55;;;7.40;79.30;;;;;;5078181;28;20051;-38
2021/01/17 09:58:04;;;;;;;11.48;8.73;;;7.40;79.40;;;;;;5078891;28;20058;-37
2021/01/17 10:00:30;;;;;;;14.05;8.68;;;7.40;79.40;;;;;;5078264;28;20753;-37
2021/01/17 10:02:56;;;;;;;12.40;8.50;;;7.40;79.30;;;;;;5074827;28;20135;-37
2021/01/17 10:05:36;;;;;;;11.85;7.95;;;7.40;79.30;;;;;;5068059;28;20119;-37
2021/01/17 10:08:04;;;;;;;13.57;9.38;;;7.40;79.30;;;;;;5068169;28;20765;-37
2021/01/17 10:10:30;;;;;;;13.02;8.65;;;7.40;79.30;;;;;;5073783;28;20044;-37
2021/01/17 10:12:56;;;;;;;12.55;8.48;;;7.40;79.30;;;;;;5079912;28;20079;-37
2021/01/17 10:15:24;;;;;;;12.32;8.93;;;7.40;79.40;;;;;;5076670;28;20068;-37
2021/01/17 10:17:50;;;;;;;13.88;8.73;;;7.40;79.30;;;;;;5079010;28;20094;-37
2021/01/17 10:20:29;;;;;;;13.75;8.98;;;7.40;79.30;;;;;;5077351;28;20040;-37
2021/01/17 10:23:03;;;;;;;11.77;8.07;;;7.40;79.40;;;;;;5078905;28;20080;-37
2021/01/17 10:25:30;;;;;;;12.35;8.15;;;7.40;79.30;;;;;;5075701;28;20139;-38
2021/01/17 10:28:09;;;;;;;12.30;8.50;;;7.40;79.30;;;;;;5085073;28;20082;-37
2021/01/17 10:30:38;;;;;;;13.07;8.57;;;7.40;79.30;;;;;;5079688;28;20055;-37
2021/01/17 10:33:05;;;;;;;13.52;9.27;;;7.30;79.30;;;;;;5078523;28;20052;-37
2021/01/17 10:35:34;;;;;;;13.65;7.97;;;7.40;79.30;;;;;;5079013;28;20759;-37
2021/01/17 10:38:06;;;;;;;13.05;8.63;;;7.40;79.30;;;;;;5075612;28;20044;-36
2021/01/17 10:40:33;;;;;;;12.82;8.35;;;7.40;79.40;;;;;;5074006;28;20052;-37
2021/01/17 10:43:02;;;;;;;13.05;8.25;;;7.40;79.30;;;;;;5086621;28;20555;-37
2021/01/17 10:45:29;;;;;;;14.20;8.50;;;7.40;79.30;;;;;;5076147;28;20051;-37
2021/01/17 10:48:07;;;;;;;10.75;7.20;;;7.40;79.30;;;;;;5067437;28;20088;-36
2021/01/17 10:50:51;;;;;;;12.50;8.57;;;7.40;79.30;;;;;;5068212;28;20055;-36
2021/01/17 10:53:30;;;;;;;12.80;8.50;;;7.40;79.30;;;;;;5068533;28;20044;-36
2021/01/17 10:55:58;;;;;;;11.77;8.65;;;7.40;79.30;;;;;;5068412;28;20815;-37
2021/01/17 10:58:31;;;;;;;13.02;9.05;;;7.30;79.30;;;;;;5065757;28;20036;-36
2021/01/17 11:00:59;;;;;;;12.75;8.23;;;7.40;79.30;;;;;;5081355;28;20143;-36
2021/01/17 11:03:38;;;;;;;12.18;8.10;;;7.40;79.30;;;;;;5085380;28;20185;-36
2021/01/17 11:06:07;;;;;;;12.40;8.20;;;7.40;79.30;;;;;;5088312;28;20059;-37
2021/01/17 11:08:39;;;;;;;11.82;8.23;;;7.40;79.40;;;;;;5088158;28;20496;-36
2021/01/17 11:11:05;;;;;;;11.77;7.78;;;7.40;79.30;;;;;;5087725;28;20319;-37
2021/01/17 11:13:30;;;;;;;13.52;8.40;;;7.40;79.40;;;;;;5088336;28;20048;-37
2021/01/17 11:15:56;;;;;;;12.15;8.02;;;7.40;79.40;;;;;;5087715;28;20099;-37
2021/01/17 11:18:22;;;;;;;13.00;8.45;;;7.40;79.30;;;;;;5088084;28;20044;-36
2021/01/17 11:20:56;;;;;;;28.48;15.05;;;7.40;79.40;;;;;;5070690;28;20094;-38
2021/01/17 11:23:24;;;;;;;30.27;14.70;;;7.30;78.50;;;;;;5068070;28;20662;-37
2021/01/17 11:26:10;;;;;;;29.63;16.42;;;6.90;78.40;;;;;;5068373;28;20846;-38
2021/01/17 11:28:35;;;;;;;;;;;6.80;78.80;;;;;;5068270;28;20059;-37
2021/01/17 11:31:14;;;;;;;;;;;6.80;78.80;;;;;;5076496;28;19950;-37
2021/01/17 11:33:40;;;;;;;22.95;13.70;;;6.80;78.90;;;;;;5082951;28;19923;-37
2021/01/17 11:36:06;;;;;;;26.00;14.57;;;6.80;79.00;;;;;;5087084;28;20105;-37
2021/01/17 11:39:01;;;;;;;28.13;14.82;;;6.90;79.10;;;;;;5088142;28;20132;-37
2021/01/17 11:41:35;;;;;;;25.65;13.55;;;6.90;79.00;;;;;;4987936;28;20078;-37
2021/01/17 11:44:18;;;;;;;29.48;15.32;;;7.00;79.20;;;;;;4985603;28;20053;-38
2021/01/17 11:46:45;;;;;;;27.50;13.50;;;7.00;79.10;;;;;;4985216;28;20189;-38
2021/01/17 11:49:11;;;;;;;22.83;13.73;;;7.00;79.10;;;;;;4985666;28;20054;-39
2021/01/17 11:51:40;;;;;;;29.17;15.05;;;7.00;79.10;;;;;;4984692;28;20069;-36
2021/01/17 11:54:13;;;;;;;26.48;14.93;;;7.10;79.20;;;;;;4986460;28;20570;-37
2021/01/17 11:56:39;;;;;;;22.50;14.02;;;7.10;79.20;;;;;;4986381;28;20050;-37
2021/01/17 11:59:05;;;;;;;25.42;14.38;;;7.10;79.20;;;;;;4985854;28;20438;-37
2021/01/17 12:01:31;;;;;;;25.02;14.18;;;7.10;79.20;;;;;;4984450;28;20092;-38
2021/01/17 12:04:01;;;;;;;22.40;13.57;;;7.10;79.20;;;;;;4985794;28;20506;-38
2021/01/17 12:06:27;;;;;;;25.10;12.93;;;7.10;79.20;;;;;;4972400;28;20476;-36
2021/01/17 12:09:08;;;;;;;27.60;14.23;;;7.20;79.30;;;;;;4966848;28;20154;-37
2021/01/17 12:11:46;;;;;;;21.83;12.77;;;7.10;79.20;;;;;;4969878;28;20150;-38
2021/01/17 12:14:23;;;;;;;21.10;12.48;;;7.20;79.20;;;;;;4978026;28;20057;-37
2021/01/17 12:16:54;;;;;;;25.90;12.93;;;7.20;79.30;;;;;;4986695;28;20571;-36
2021/01/17 12:19:21;;;;;;;18.63;12.40;;;7.20;79.20;;;;;;5082053;28;20075;-37
2021/01/17 12:21:49;;;;;;;22.35;12.85;;;7.20;79.30;;;;;;5081841;28;20090;-36
2021/01/17 12:24:16;;;;;;;21.25;12.82;;;7.20;79.20;;;;;;5061825;28;20064;-36
2021/01/17 12:26:43;;;;;;;20.65;12.90;;;7.20;79.20;;;;;;5082686;28;20043;-36
2021/01/17 12:29:10;;;;;;;20.55;12.95;;;7.30;79.30;;;;;;5081592;28;20047;-39
2021/01/17 12:31:36;;;;;;;19.40;12.23;;;7.20;79.20;;;;;;5081763;28;20140;-37
2021/01/17 12:34:02;;;;;;;20.83;13.05;;;7.30;79.30;;;;;;5082373;28;20063;-36
2021/01/17 12:36:30;;;;;;;20.60;12.88;;;7.30;79.30;;;;;;5079780;28;20480;-37
2021/01/17 12:38:56;;;;;;;22.90;12.75;;;7.30;79.30;;;;;;5081972;28;20052;-39
2021/01/17 12:41:26;;;;;;;21.40;12.35;;;7.30;79.30;;;;;;5079069;28;20055;-37
2021/01/17 12:43:52;;;;;;;21.30;12.65;;;7.30;79.30;;;;;;5075973;28;20497;-39
2021/01/17 12:46:18;;;;;;;21.40;12.13;;;7.30;79.30;;;;;;5071758;28;20456;-36
2021/01/17 12:48:45;;;;;;;18.80;11.75;;;7.30;79.30;;;;;;5079622;28;20047;-38
2021/01/17 12:51:11;;;;;;;18.08;11.70;;;7.30;79.30;;;;;;5062172;28;20098;-37
2021/01/17 12:53:39;;;;;;;19.05;12.02;;;7.30;79.20;;;;;;5081395;28;20407;-37
2021/01/17 12:56:05;;;;;;;19.42;12.00;;;7.30;79.20;;;;;;5079357;28;20675;-38
2021/01/17 12:58:31;;;;;;;24.55;13.65;;;7.30;79.20;;;;;;5081776;28;20051;-38
2021/01/17 13:00:56;;;;;;;21.02;12.52;;;7.20;79.00;;;;;;5079957;28;20048;-38